createdAt,value
2019-01-21T00:00:55.617Z,-1.90
2019-01-21T00:01:55.593Z,-1.98
2019-01-21T00:02:55.584Z,-1.94
2019-01-21T00:03:55.587Z,-1.90
2019-01-21T00:04:55.570Z,-1.94
2019-01-21T00:05:55.594Z,-1.98
2019-01-21T00:06:55.559Z,-2.00
2019-01-21T00:07:55.535Z,-1.95
2019-01-21T00:08:55.545Z,-2.03
2019-01-21T00:09:55.514Z,-2.06
2019-01-21T00:10:55.642Z,-1.94
2019-01-21T00:11:55.503Z,-1.98
2019-01-21T00:12:55.490Z,-2.08
2019-01-21T00:13:55.470Z,-2.06
2019-01-21T00:14:55.465Z,-1.90
2019-01-21T00:15:55.476Z,-2.02
2019-01-21T00:16:55.448Z,-1.95
2019-01-21T00:17:55.437Z,-2.00
2019-01-21T00:18:55.428Z,-2.00
2019-01-21T00:19:55.412Z,-2.00
2019-01-21T00:20:55.428Z,-2.02
2019-01-21T00:21:55.421Z,-2.03
2019-01-21T00:22:55.376Z,-2.00
2019-01-21T00:23:55.371Z,-1.98
2019-01-21T00:24:55.370Z,-1.97
2019-01-21T00:25:55.392Z,-1.98
2019-01-21T00:26:55.342Z,-1.84
2019-01-21T00:27:55.379Z,-1.95
2019-01-21T00:28:55.330Z,-2.02
2019-01-21T00:29:55.318Z,-2.05
2019-01-21T00:30:55.320Z,-2.15
2019-01-21T00:31:55.313Z,-2.18
2019-01-21T00:32:55.355Z,-2.16
2019-01-21T00:33:55.282Z,-2.12
2019-01-21T00:34:55.256Z,-2.18
2019-01-21T00:35:55.257Z,-2.15
2019-01-21T00:36:55.286Z,-2.18
2019-01-21T00:37:55.224Z,-2.15
2019-01-21T00:38:55.216Z,-2.21
2019-01-21T00:39:55.214Z,-2.20
2019-01-21T00:40:55.192Z,-2.24
2019-01-21T00:41:55.204Z,-2.16
2019-01-21T00:42:55.175Z,-2.10
2019-01-21T00:43:55.156Z,-2.12
2019-01-21T00:44:55.199Z,-2.16
2019-01-21T00:45:55.147Z,-2.18
2019-01-21T00:46:55.146Z,-2.15
2019-01-21T00:47:55.121Z,-2.12
2019-01-21T00:48:55.106Z,-2.20
2019-01-21T00:49:55.092Z,-2.13
2019-01-21T00:50:55.088Z,-2.15
2019-01-21T00:51:55.108Z,-2.20
2019-01-21T00:52:55.073Z,-2.20
2019-01-21T00:53:55.050Z,-2.18
2019-01-21T00:54:55.044Z,-2.20
2019-01-21T00:55:55.037Z,-2.13
2019-01-21T00:56:55.071Z,-2.08
2019-01-21T00:57:55.058Z,-2.09
2019-01-21T00:58:55.010Z,-1.97
2019-01-21T00:59:54.995Z,-1.92
2019-01-21T01:00:54.986Z,-1.90
2019-01-21T01:01:54.968Z,-1.84
2019-01-21T01:02:54.989Z,-1.92
2019-01-21T01:03:54.958Z,-1.91
2019-01-21T01:04:54.944Z,-1.85
2019-01-21T01:05:54.932Z,-1.88
2019-01-21T01:06:54.926Z,-1.85
2019-01-21T01:07:54.934Z,-1.91
2019-01-21T01:08:54.902Z,-1.94
2019-01-21T01:09:54.900Z,-1.97
2019-01-21T01:10:54.922Z,-1.98
2019-01-21T01:11:54.870Z,-1.92
2019-01-21T01:12:54.875Z,-1.90
2019-01-21T01:13:54.850Z,-1.90
2019-01-21T01:14:54.843Z,-1.98
2019-01-21T01:15:54.827Z,-2.08
2019-01-21T01:16:54.828Z,-2.12
2019-01-21T01:17:54.828Z,-2.12
2019-01-21T01:18:54.795Z,-2.09
2019-01-21T01:19:54.790Z,-2.00
2019-01-21T01:20:54.783Z,-2.00
2019-01-21T01:21:54.766Z,-1.94
2019-01-21T01:22:54.785Z,-1.97
2019-01-21T01:23:54.748Z,-1.94
2019-01-21T01:24:54.741Z,-1.85
2019-01-21T01:25:54.726Z,-1.94
2019-01-21T01:26:54.715Z,-1.82
2019-01-21T01:27:54.720Z,-1.82
2019-01-21T01:28:54.712Z,-1.91
2019-01-21T01:29:54.689Z,-1.87
2019-01-21T01:30:54.677Z,-1.94
2019-01-21T01:31:54.665Z,-1.91
2019-01-21T01:32:54.661Z,-1.94
2019-01-21T01:33:54.704Z,-1.94
2019-01-21T01:34:54.637Z,-2.00
2019-01-21T01:35:54.619Z,-2.03
2019-01-21T01:36:54.606Z,-2.09
2019-01-21T01:37:54.604Z,-2.12
2019-01-21T01:38:54.616Z,-2.06
2019-01-21T01:39:54.595Z,-2.06
2019-01-21T01:40:54.567Z,-2.03
2019-01-21T01:41:54.602Z,-1.95
2019-01-21T01:42:54.565Z,-1.97
2019-01-21T01:43:54.571Z,-1.97
2019-01-21T01:44:54.550Z,-1.90
2019-01-21T01:45:54.536Z,-1.80
2019-01-21T01:46:54.507Z,-1.94
2019-01-21T01:47:54.498Z,-2.05
2019-01-21T01:48:54.519Z,-2.05
2019-01-21T01:49:54.484Z,-2.13
2019-01-21T01:50:54.474Z,-2.13
2019-01-21T01:51:54.462Z,-2.16
2019-01-21T01:52:54.445Z,-2.23
2019-01-21T01:53:54.431Z,-2.09
2019-01-21T01:54:54.443Z,-2.02
2019-01-21T01:55:54.419Z,-1.97
2019-01-21T01:56:54.408Z,-2.02
2019-01-21T01:57:54.409Z,-2.10
2019-01-21T01:58:54.384Z,-2.16
2019-01-21T01:59:54.396Z,-2.08
2019-01-21T02:00:54.366Z,-2.13
2019-01-21T02:01:54.373Z,-2.00
2019-01-21T02:02:54.364Z,-2.06
2019-01-21T02:03:54.372Z,-2.00
2019-01-21T02:04:54.363Z,-2.00
2019-01-21T02:05:54.323Z,-1.97
2019-01-21T02:06:54.304Z,-1.85
2019-01-21T02:07:54.307Z,-2.03
2019-01-21T02:08:54.285Z,-2.08
2019-01-21T02:09:54.296Z,-2.15
2019-01-21T02:10:54.282Z,-2.16
2019-01-21T02:11:54.250Z,-2.20
2019-01-21T02:12:54.242Z,-2.15
2019-01-21T02:13:54.233Z,-2.21
2019-01-21T02:15:02.524Z,-2.15
2019-01-21T02:15:54.212Z,-2.24
2019-01-21T02:16:54.206Z,-2.24
2019-01-21T02:17:54.192Z,-2.34
2019-01-21T02:18:54.197Z,-2.27
2019-01-21T02:19:54.168Z,-2.43
2019-01-21T02:20:54.194Z,-2.45
2019-01-21T02:21:54.152Z,-2.42
2019-01-21T02:22:54.136Z,-2.21
2019-01-21T02:23:54.140Z,-2.42
2019-01-21T02:24:54.123Z,-2.43
2019-01-21T02:25:54.127Z,-2.42
2019-01-21T02:26:54.121Z,-2.46
2019-01-21T02:27:54.100Z,-2.48
2019-01-21T02:28:54.092Z,-2.34
2019-01-21T02:29:54.068Z,-2.43
2019-01-21T02:30:54.074Z,-2.23
2019-01-21T02:31:54.047Z,-2.27
2019-01-21T02:32:54.043Z,-2.26
2019-01-21T02:33:54.041Z,-2.34
2019-01-21T02:34:54.046Z,-2.32
2019-01-21T02:35:54.023Z,-2.24
2019-01-21T02:36:53.995Z,-2.32
2019-01-21T02:37:53.984Z,-2.24
2019-01-21T02:38:53.987Z,-2.20
2019-01-21T02:39:53.979Z,-2.15
2019-01-21T02:40:53.975Z,-2.27
2019-01-21T02:41:53.946Z,-2.32
2019-01-21T02:42:53.939Z,-2.49
2019-01-21T02:43:53.917Z,-2.55
2019-01-21T02:44:53.914Z,-2.64
2019-01-21T02:45:53.946Z,-2.66
2019-01-21T02:46:53.891Z,-2.78
2019-01-21T02:47:59.972Z,-2.74
2019-01-21T02:48:54.874Z,-2.66
2019-01-21T02:49:53.870Z,-2.73
2019-01-21T02:50:53.857Z,-2.73
2019-01-21T02:51:53.869Z,-2.70
2019-01-21T02:52:53.832Z,-2.66
2019-01-21T02:53:53.818Z,-2.66
2019-01-21T02:54:53.807Z,-2.67
2019-01-21T02:55:53.801Z,-2.67
2019-01-21T02:56:53.813Z,-2.68
2019-01-21T02:57:53.828Z,-2.61
2019-01-21T02:58:53.783Z,-2.50
2019-01-21T02:59:53.789Z,-2.56
2019-01-21T03:00:53.749Z,-2.67
2019-01-21T03:01:53.849Z,-2.74
2019-01-21T03:02:53.739Z,-2.74
2019-01-21T03:03:53.724Z,-2.81
2019-01-21T03:04:53.705Z,-2.84
2019-01-21T03:05:53.714Z,-2.82
2019-01-21T03:06:53.720Z,-2.81
2019-01-21T03:07:53.688Z,-2.84
2019-01-21T03:08:53.669Z,-2.86
2019-01-21T03:09:53.667Z,-2.81
2019-01-21T03:10:53.659Z,-2.70
2019-01-21T03:11:53.677Z,-2.73
2019-01-21T03:12:53.628Z,-2.71
2019-01-21T03:13:53.614Z,-2.77
2019-01-21T03:14:53.623Z,-2.77
2019-01-21T03:15:53.590Z,-2.79
2019-01-21T03:16:53.599Z,-2.79
2019-01-21T03:17:53.587Z,-2.82
2019-01-21T03:18:53.578Z,-2.92
2019-01-21T03:19:53.553Z,-2.82
2019-01-21T03:20:53.535Z,-2.91
2019-01-21T03:21:53.560Z,-2.89
2019-01-21T03:22:53.531Z,-2.74
2019-01-21T03:23:53.513Z,-2.86
2019-01-21T03:24:53.496Z,-2.84
2019-01-21T03:25:53.491Z,-2.82
2019-01-21T03:26:53.522Z,-2.78
2019-01-21T03:27:53.469Z,-2.79
2019-01-21T03:28:53.467Z,-2.79
2019-01-21T03:29:53.471Z,-2.84
2019-01-21T03:30:53.469Z,-2.86
2019-01-21T03:31:53.476Z,-2.81
2019-01-21T03:32:53.440Z,-2.68
2019-01-21T03:33:53.428Z,-2.67
2019-01-21T03:34:53.413Z,-2.67
2019-01-21T03:35:53.396Z,-2.64
2019-01-21T03:36:53.419Z,-2.45
2019-01-21T03:37:53.375Z,-2.32
2019-01-21T03:38:53.371Z,-2.30
2019-01-21T03:39:53.342Z,-2.30
2019-01-21T03:40:53.338Z,-2.21
2019-01-21T03:41:53.408Z,-2.12
2019-01-21T03:42:53.320Z,-2.21
2019-01-21T03:43:53.317Z,-2.29
2019-01-21T03:44:53.300Z,-2.32
2019-01-21T03:45:53.283Z,-2.40
2019-01-21T03:46:53.358Z,-2.27
2019-01-21T03:47:53.298Z,-2.45
2019-01-21T03:48:53.283Z,-2.53
2019-01-21T03:49:53.258Z,-2.55
2019-01-21T03:50:53.241Z,-2.60
2019-01-21T03:51:53.219Z,-2.64
2019-01-21T03:52:53.272Z,-2.60
2019-01-21T03:53:53.209Z,-2.67
2019-01-21T03:54:53.210Z,-2.66
2019-01-21T03:55:53.185Z,-2.67
2019-01-21T03:56:53.197Z,-2.68
2019-01-21T03:57:53.209Z,-2.64
2019-01-21T03:58:53.151Z,-2.67
2019-01-21T03:59:53.174Z,-2.77
2019-01-21T04:00:53.159Z,-2.71
2019-01-21T04:01:53.137Z,-2.78
2019-01-21T04:02:53.133Z,-2.82
2019-01-21T04:03:53.108Z,-2.89
2019-01-21T04:04:53.105Z,-2.82
2019-01-21T04:05:53.091Z,-2.81
2019-01-21T04:06:53.100Z,-2.88
2019-01-21T04:07:53.131Z,-2.94
2019-01-21T04:08:53.073Z,-2.91
2019-01-21T04:09:53.097Z,-2.91
2019-01-21T04:10:53.053Z,-2.82
2019-01-21T04:11:53.054Z,-2.91
2019-01-21T04:12:53.078Z,-2.96
2019-01-21T04:13:52.990Z,-2.99
2019-01-21T04:14:53.007Z,-3.06
2019-01-21T04:15:52.967Z,-3.02
2019-01-21T04:16:52.966Z,-3.10
2019-01-21T04:17:53.021Z,-3.07
2019-01-21T04:18:52.994Z,-3.02
2019-01-21T04:19:52.962Z,-3.09
2019-01-21T04:20:52.915Z,-3.12
2019-01-21T04:21:52.909Z,-3.07
2019-01-21T04:22:52.937Z,-3.10
2019-01-21T04:23:52.900Z,-3.10
2019-01-21T04:24:52.907Z,-3.14
2019-01-21T04:25:54.499Z,-3.10
2019-01-21T04:26:52.859Z,-3.07
2019-01-21T04:27:52.910Z,-3.09
2019-01-21T04:28:52.843Z,-3.05
2019-01-21T04:29:52.840Z,-2.99
2019-01-21T04:30:52.822Z,-2.99
2019-01-21T04:31:52.836Z,-2.92
2019-01-21T04:32:52.825Z,-2.91
2019-01-21T04:33:52.804Z,-2.91
2019-01-21T04:34:52.800Z,-3.03
2019-01-21T04:35:52.808Z,-2.97
2019-01-21T04:36:52.766Z,-2.79
2019-01-21T04:37:52.781Z,-2.79
2019-01-21T04:38:52.732Z,-2.81
2019-01-21T04:39:52.735Z,-2.82
2019-01-21T04:40:52.727Z,-2.82
2019-01-21T04:41:52.724Z,-2.92
2019-01-21T04:42:52.729Z,-2.84
2019-01-21T04:43:52.737Z,-2.97
2019-01-21T04:44:52.671Z,-2.94
2019-01-21T04:45:52.661Z,-2.91
2019-01-21T04:46:52.660Z,-2.91
2019-01-21T04:47:52.663Z,-2.91
2019-01-21T04:48:52.666Z,-2.92
2019-01-21T04:49:52.652Z,-2.92
2019-01-21T04:50:52.615Z,-2.91
2019-01-21T04:51:52.619Z,-2.86
2019-01-21T04:52:52.603Z,-2.81
2019-01-21T04:53:52.629Z,-2.79
2019-01-21T04:54:52.619Z,-2.73
2019-01-21T04:55:52.570Z,-2.84
2019-01-21T04:56:52.583Z,-2.82
2019-01-21T04:57:52.555Z,-2.70
2019-01-21T04:58:52.572Z,-2.78
2019-01-21T04:59:52.546Z,-2.84
2019-01-21T05:00:52.510Z,-2.82
2019-01-21T05:01:52.510Z,-2.84
2019-01-21T05:02:52.496Z,-2.79
2019-01-21T05:03:52.560Z,-2.82
2019-01-21T05:04:52.499Z,-2.81
2019-01-21T05:05:52.485Z,-2.91
2019-01-21T05:06:52.468Z,-2.92
2019-01-21T05:07:52.441Z,-2.92
2019-01-21T05:08:52.458Z,-2.99
2019-01-21T05:09:52.411Z,-2.92
2019-01-21T05:10:52.441Z,-2.91
2019-01-21T05:11:52.408Z,-2.92
2019-01-21T05:12:52.389Z,-2.85
2019-01-21T05:13:52.440Z,-3.02
2019-01-21T05:14:52.361Z,-2.92
2019-01-21T05:15:52.354Z,-3.00
2019-01-21T05:16:52.348Z,-2.94
2019-01-21T05:17:52.356Z,-2.79
2019-01-21T05:18:52.364Z,-2.86
2019-01-21T05:19:52.312Z,-2.78
2019-01-21T05:20:52.312Z,-2.82
2019-01-21T05:21:52.312Z,-2.81
2019-01-21T05:22:52.290Z,-2.77
2019-01-21T05:23:52.304Z,-2.71
2019-01-21T05:24:52.272Z,-2.74
2019-01-21T05:25:52.252Z,-2.68
2019-01-21T05:26:52.252Z,-2.70
2019-01-21T05:27:52.227Z,-2.70
2019-01-21T05:28:52.241Z,-2.81
2019-01-21T05:29:52.208Z,-2.82
2019-01-21T05:30:52.208Z,-2.78
2019-01-21T05:31:52.243Z,-2.82
2019-01-21T05:32:52.188Z,-2.78
2019-01-21T05:33:52.182Z,-2.82
2019-01-21T05:34:52.229Z,-2.79
2019-01-21T05:35:52.166Z,-2.86
2019-01-21T05:36:52.140Z,-2.82
2019-01-21T05:37:52.138Z,-2.85
2019-01-21T05:38:52.162Z,-2.91
2019-01-21T05:39:52.133Z,-2.96
2019-01-21T05:40:52.107Z,-2.97
2019-01-21T05:41:52.105Z,-2.89
2019-01-21T05:42:52.068Z,-2.89
2019-01-21T05:43:52.064Z,-2.94
2019-01-21T05:44:52.089Z,-2.94
2019-01-21T05:45:52.044Z,-2.99
2019-01-21T05:46:52.035Z,-2.92
2019-01-21T05:47:52.042Z,-2.92
2019-01-21T05:48:52.025Z,-2.86
2019-01-21T05:49:52.020Z,-2.81
2019-01-21T05:50:52.009Z,-2.77
2019-01-21T05:51:51.978Z,-2.77
2019-01-21T05:52:51.982Z,-2.86
2019-01-21T05:53:51.954Z,-2.86
2019-01-21T05:54:52.198Z,-2.79
2019-01-21T05:55:51.940Z,-2.77
2019-01-21T05:56:51.922Z,-2.81
2019-01-21T05:57:51.924Z,-2.92
2019-01-21T05:58:51.910Z,-2.78
2019-01-21T05:59:51.974Z,-2.92
2019-01-21T06:00:51.937Z,-2.81
2019-01-21T06:01:51.942Z,-2.85
2019-01-21T06:02:51.951Z,-2.91
2019-01-21T06:03:51.924Z,-2.82
2019-01-21T06:04:51.910Z,-2.79
2019-01-21T06:05:51.917Z,-2.88
2019-01-21T06:06:51.848Z,-2.91
2019-01-21T06:07:51.812Z,-2.92
2019-01-21T06:08:51.798Z,-2.89
2019-01-21T06:09:51.826Z,-2.79
2019-01-21T06:10:51.944Z,-2.84
2019-01-21T06:11:51.806Z,-2.82
2019-01-21T06:12:51.820Z,-2.78
2019-01-21T06:13:51.760Z,-2.82
2019-01-21T06:14:51.778Z,-2.79
2019-01-21T06:15:51.756Z,-2.85
2019-01-21T06:16:51.722Z,-2.86
2019-01-21T06:17:51.711Z,-2.85
2019-01-21T06:18:57.140Z,-2.71
2019-01-21T06:19:52.694Z,-2.74
2019-01-21T06:20:51.723Z,-2.73
2019-01-21T06:21:51.688Z,-2.81
2019-01-21T06:22:51.658Z,-2.81
2019-01-21T06:23:51.654Z,-2.74
2019-01-21T06:24:51.650Z,-2.81
2019-01-21T06:25:51.655Z,-2.67
2019-01-21T06:26:51.618Z,-2.67
2019-01-21T06:27:51.610Z,-2.67
2019-01-21T06:28:51.598Z,-2.82
2019-01-21T06:29:51.586Z,-2.81
2019-01-21T06:30:51.583Z,-2.84
2019-01-21T06:31:51.726Z,-2.84
2019-01-21T06:32:51.604Z,-2.71
2019-01-21T06:33:51.584Z,-2.82
2019-01-21T06:34:51.645Z,-2.89
2019-01-21T06:35:51.571Z,-2.82
2019-01-21T06:37:03.365Z,-2.78
2019-01-21T06:39:01.864Z,-2.77
2019-01-21T06:40:01.851Z,-2.85
2019-01-21T06:41:01.840Z,-2.81
2019-01-21T06:42:01.846Z,-2.74
2019-01-21T06:43:01.816Z,-2.74
2019-01-21T06:44:01.809Z,-2.79
2019-01-21T06:45:01.798Z,-2.73
2019-01-21T06:47:19.194Z,-2.68
2019-01-21T06:48:19.183Z,-2.68
2019-01-21T06:49:19.167Z,-2.66
2019-01-21T06:50:19.155Z,-2.67
2019-01-21T06:51:19.166Z,-2.78
2019-01-21T06:52:19.134Z,-2.71
2019-01-21T06:53:19.132Z,-2.79
2019-01-21T06:54:19.136Z,-2.68
2019-01-21T06:55:19.100Z,-2.70
2019-01-21T06:56:19.126Z,-2.73
2019-01-21T06:57:19.086Z,-2.64
2019-01-21T06:58:19.073Z,-2.58
2019-01-21T06:59:19.068Z,-2.61
2019-01-21T07:00:19.051Z,-2.64
2019-01-21T07:01:19.040Z,-2.58
2019-01-21T07:02:19.060Z,-2.66
2019-01-21T07:03:19.018Z,-2.58
2019-01-21T07:04:19.018Z,-2.68
2019-01-21T07:05:19.011Z,-2.70
2019-01-21T07:06:18.989Z,-2.60
2019-01-21T07:07:19.004Z,-2.68
2019-01-21T07:08:18.967Z,-2.67
2019-01-21T07:09:18.958Z,-2.67
2019-01-21T07:10:18.952Z,-2.68
2019-01-21T07:11:18.951Z,-2.63
2019-01-21T07:12:18.952Z,-2.67
2019-01-21T07:13:18.916Z,-2.67
2019-01-21T07:14:18.906Z,-2.61
2019-01-21T07:15:18.900Z,-2.53
2019-01-21T07:16:18.892Z,-2.50
2019-01-21T07:17:18.895Z,-2.49
2019-01-21T07:18:19.654Z,-2.50
2019-01-21T07:19:18.854Z,-2.50
2019-01-21T07:20:18.845Z,-2.46
2019-01-21T07:21:18.847Z,-2.49
2019-01-21T07:22:18.880Z,-2.49
2019-01-21T07:23:18.814Z,-2.60
2019-01-21T07:24:18.804Z,-2.49
2019-01-21T07:25:18.806Z,-2.52
2019-01-21T07:26:18.792Z,-2.46
2019-01-21T07:27:18.770Z,-2.49
2019-01-21T07:28:18.782Z,-2.46
2019-01-21T07:29:18.754Z,-2.50
2019-01-21T07:30:18.738Z,-2.64
2019-01-21T07:31:18.731Z,-2.61
2019-01-21T07:32:18.736Z,-2.63
2019-01-21T07:33:18.736Z,-2.67
2019-01-21T07:34:18.707Z,-2.58
2019-01-21T07:35:18.689Z,-2.63
2019-01-21T07:36:18.679Z,-2.64
2019-01-21T07:37:18.707Z,-2.64
2019-01-21T07:38:18.662Z,-2.66
2019-01-21T07:39:19.593Z,-2.64
2019-01-21T07:40:18.654Z,-2.68
2019-01-21T07:41:18.658Z,-2.64
2019-01-21T07:42:18.716Z,-2.68
2019-01-21T07:43:19.720Z,-2.68
2019-01-21T07:44:18.615Z,-2.67
2019-01-21T07:45:18.587Z,-2.67
2019-01-21T07:46:18.587Z,-2.68
2019-01-21T07:47:18.562Z,-2.68
2019-01-21T07:48:18.556Z,-2.71
2019-01-21T07:49:18.568Z,-2.64
2019-01-21T07:50:18.536Z,-2.71
2019-01-21T07:51:18.529Z,-2.68
2019-01-21T07:52:18.526Z,-2.66
2019-01-21T07:53:18.539Z,-2.68
2019-01-21T07:54:18.656Z,-2.86
2019-01-21T07:55:18.488Z,-2.74
2019-01-21T07:56:18.470Z,-2.77
2019-01-21T07:57:18.470Z,-2.77
2019-01-21T07:58:18.484Z,-2.70
2019-01-21T07:59:18.442Z,-2.70
2019-01-21T08:00:18.434Z,-2.67
2019-01-21T08:01:18.420Z,-2.68
2019-01-21T08:02:18.411Z,-2.67
2019-01-21T08:03:18.420Z,-2.60
2019-01-21T08:04:18.423Z,-2.60
2019-01-21T08:05:18.400Z,-2.64
2019-01-21T08:06:18.370Z,-2.63
2019-01-21T08:07:18.359Z,-2.68
2019-01-21T08:08:18.373Z,-2.56
2019-01-21T08:09:18.342Z,-2.61
2019-01-21T08:10:18.401Z,-2.56
2019-01-21T08:11:18.322Z,-2.52
2019-01-21T08:12:18.312Z,-2.61
2019-01-21T08:13:18.304Z,-2.63
2019-01-21T08:14:18.288Z,-2.56
2019-01-21T08:15:18.296Z,-2.68
2019-01-21T08:16:18.267Z,-2.70
2019-01-21T08:17:18.257Z,-2.61
2019-01-21T08:18:18.277Z,-2.73
2019-01-21T08:19:24.048Z,-2.68
2019-01-21T08:20:19.248Z,-2.74
2019-01-21T08:21:18.218Z,-2.67
2019-01-21T08:22:18.206Z,-2.71
2019-01-21T08:23:18.213Z,-2.66
2019-01-21T08:24:18.190Z,-2.63
2019-01-21T08:25:18.176Z,-2.67
2019-01-21T08:26:18.190Z,-2.68
2019-01-21T08:27:18.161Z,-2.61
2019-01-21T08:28:18.152Z,-2.66
2019-01-21T08:29:18.132Z,-2.58
2019-01-21T08:30:18.121Z,-2.61
2019-01-21T08:31:18.132Z,-2.64
2019-01-21T08:32:18.109Z,-2.63
2019-01-21T08:33:18.088Z,-2.60
2019-01-21T08:34:18.082Z,-2.64
2019-01-21T08:35:18.068Z,-2.52
2019-01-21T08:36:18.080Z,-2.52
2019-01-21T08:37:18.048Z,-2.42
2019-01-21T08:38:18.044Z,-2.48
2019-01-21T08:39:18.028Z,-2.45
2019-01-21T08:40:18.018Z,-2.48
2019-01-21T08:41:18.028Z,-2.40
2019-01-21T08:42:18.002Z,-2.34
2019-01-21T08:43:17.984Z,-2.32
2019-01-21T08:44:17.988Z,-2.26
2019-01-21T08:45:17.970Z,-2.40
2019-01-21T08:46:21.382Z,-2.30
2019-01-21T08:47:17.948Z,-2.42
2019-01-21T08:48:17.958Z,-2.32
2019-01-21T08:49:17.947Z,-2.29
2019-01-21T08:50:17.922Z,-2.23
2019-01-21T08:51:17.905Z,-2.32
2019-01-21T08:52:17.913Z,-2.24
2019-01-21T08:53:17.891Z,-2.24
2019-01-21T08:54:17.881Z,-2.42
2019-01-21T08:55:17.864Z,-2.26
2019-01-21T08:56:17.857Z,-2.39
2019-01-21T08:57:17.926Z,-2.24
2019-01-21T08:58:17.833Z,-2.27
2019-01-21T08:59:17.821Z,-2.32
2019-01-21T09:00:17.835Z,-2.37
2019-01-21T09:01:17.804Z,-2.29
2019-01-21T09:02:17.812Z,-2.24
2019-01-21T09:03:17.820Z,-2.29
2019-01-21T09:04:17.825Z,-2.34
2019-01-21T09:05:17.791Z,-2.20
2019-01-21T09:06:17.749Z,-2.20
2019-01-21T09:07:17.795Z,-2.16
2019-01-21T09:08:17.738Z,-2.12
2019-01-21T09:09:17.742Z,-2.15
2019-01-21T09:10:17.708Z,-2.10
2019-01-21T09:11:17.729Z,-2.03
2019-01-21T09:12:17.692Z,-1.90
2019-01-21T09:13:17.692Z,-1.88
2019-01-21T09:14:17.674Z,-1.90
2019-01-21T09:15:17.663Z,-1.90
2019-01-21T09:16:17.651Z,-1.98
2019-01-21T09:17:17.636Z,-1.98
2019-01-21T09:18:17.662Z,-2.16
2019-01-21T09:19:17.618Z,-2.24
2019-01-21T09:20:17.607Z,-2.21
2019-01-21T09:21:17.595Z,-2.23
2019-01-21T09:22:17.585Z,-2.24
2019-01-21T09:23:17.605Z,-2.32
2019-01-21T09:24:17.564Z,-2.21
2019-01-21T09:25:17.560Z,-2.42
2019-01-21T09:26:17.544Z,-2.29
2019-01-21T09:27:17.533Z,-2.29
2019-01-21T09:28:17.544Z,-2.21
2019-01-21T09:29:17.513Z,-2.27
2019-01-21T09:30:17.520Z,-2.48
2019-01-21T09:31:17.505Z,-2.45
2019-01-21T09:32:17.484Z,-2.46
2019-01-21T09:33:17.471Z,-2.32
2019-01-21T09:34:17.478Z,-2.34
2019-01-21T09:35:17.451Z,-2.34
2019-01-21T09:36:17.439Z,-2.27
2019-01-21T09:37:17.433Z,-2.32
2019-01-21T09:38:17.417Z,-2.32
2019-01-21T09:39:17.449Z,-2.34
2019-01-21T09:40:17.401Z,-2.37
2019-01-21T09:41:17.401Z,-2.34
2019-01-21T09:42:17.379Z,-2.29
2019-01-21T09:43:17.375Z,-2.34
2019-01-21T09:44:17.378Z,-2.27
2019-01-21T09:45:17.362Z,-2.34
2019-01-21T09:46:17.335Z,-2.34
2019-01-21T09:47:17.360Z,-2.27
2019-01-21T09:48:17.316Z,-2.27
2019-01-21T09:49:17.312Z,-2.30
2019-01-21T09:50:17.320Z,-2.20
2019-01-21T09:51:17.290Z,-2.21
2019-01-21T09:52:17.275Z,-2.18
2019-01-21T09:53:17.265Z,-2.13
2019-01-21T09:54:17.266Z,-2.18
2019-01-21T09:55:17.265Z,-2.21
2019-01-21T09:56:17.229Z,-2.16
2019-01-21T09:57:17.221Z,-2.15
2019-01-21T09:58:17.213Z,-2.10
2019-01-21T09:59:17.204Z,-2.00
2019-01-21T10:00:17.264Z,-2.06
2019-01-21T10:01:17.187Z,-1.94
2019-01-21T10:02:17.168Z,-1.97
2019-01-21T10:03:17.160Z,-1.87
2019-01-21T10:04:17.152Z,-1.84
2019-01-21T10:05:17.189Z,-1.79
2019-01-21T10:06:17.141Z,-1.79
2019-01-21T10:07:17.121Z,-1.77
2019-01-21T10:08:17.109Z,-1.84
2019-01-21T10:09:17.125Z,-2.05
2019-01-21T10:10:17.177Z,-2.06
2019-01-21T10:11:17.083Z,-2.10
2019-01-21T10:12:17.068Z,-2.03
2019-01-21T10:13:17.055Z,-1.92
2019-01-21T10:14:17.046Z,-1.90
2019-01-21T10:15:17.060Z,-1.84
2019-01-21T10:16:17.034Z,-1.84
2019-01-21T10:17:17.013Z,-1.88
2019-01-21T10:18:17.007Z,-1.97
2019-01-21T10:19:16.993Z,-1.97
2019-01-21T10:20:17.005Z,-2.02
2019-01-21T10:21:16.990Z,-1.95
2019-01-21T10:22:16.961Z,-1.98
2019-01-21T10:23:17.155Z,-1.97
2019-01-21T10:24:16.949Z,-1.92
2019-01-21T10:25:16.957Z,-1.94
2019-01-21T10:26:16.933Z,-1.87
2019-01-21T10:27:16.912Z,-1.92
2019-01-21T10:28:16.895Z,-1.80
2019-01-21T10:29:16.891Z,-1.69
2019-01-21T10:30:16.885Z,-1.59
2019-01-21T10:31:16.899Z,-1.56
2019-01-21T10:32:16.855Z,-1.51
2019-01-21T10:33:16.841Z,-1.54
2019-01-21T10:34:16.836Z,-1.48
2019-01-21T10:35:16.822Z,-1.49
2019-01-21T10:36:16.841Z,-1.52
2019-01-21T10:37:16.801Z,-1.56
2019-01-21T10:38:16.791Z,-1.51
2019-01-21T10:39:16.783Z,-1.59
2019-01-21T10:40:16.771Z,-1.51
2019-01-21T10:41:16.787Z,-1.59
2019-01-21T10:42:16.759Z,-1.59
2019-01-21T10:43:16.741Z,-1.52
2019-01-21T10:44:16.735Z,-1.59
2019-01-21T10:45:16.721Z,-1.51
2019-01-21T10:46:16.746Z,-1.45
2019-01-21T10:47:16.728Z,-1.34
2019-01-21T10:48:16.689Z,-1.27
2019-01-21T10:49:16.685Z,-1.13
2019-01-21T10:50:16.670Z,-1.10
2019-01-21T10:51:16.668Z,-1.02
2019-01-21T10:52:16.672Z,-1.10
2019-01-21T10:53:16.677Z,-1.16
2019-01-21T10:54:16.631Z,-1.19
2019-01-21T10:55:16.618Z,-1.38
2019-01-21T10:56:16.610Z,-1.48
2019-01-21T10:57:16.634Z,-1.51
2019-01-21T10:58:16.587Z,-1.59
2019-01-21T10:59:16.586Z,-1.67
2019-01-21T11:00:16.567Z,-1.80
2019-01-21T11:01:16.560Z,-1.79
2019-01-21T11:02:16.573Z,-1.88
2019-01-21T11:03:17.045Z,-1.73
2019-01-21T11:04:16.525Z,-1.76
2019-01-21T11:05:16.507Z,-1.76
2019-01-21T11:06:16.500Z,-1.76
2019-01-21T11:07:16.509Z,-1.73
2019-01-21T11:08:16.508Z,-1.69
2019-01-21T11:09:16.473Z,-1.64
2019-01-21T11:10:16.469Z,-1.64
2019-01-21T11:11:16.451Z,-1.54
2019-01-21T11:12:16.451Z,-1.43
2019-01-21T11:13:16.425Z,-1.46
2019-01-21T11:14:16.416Z,-1.34
2019-01-21T11:15:16.408Z,-1.17
2019-01-21T11:16:16.400Z,-1.09
2019-01-21T11:17:16.405Z,-1.12
2019-01-21T11:18:16.391Z,-1.20
2019-01-21T11:19:16.373Z,-1.19
2019-01-21T11:20:16.380Z,-1.07
2019-01-21T11:21:16.346Z,-1.12
2019-01-21T11:22:16.364Z,-0.98
2019-01-21T11:23:16.329Z,-0.98
2019-01-21T11:24:16.475Z,-1.07
2019-01-21T11:25:16.301Z,-1.16
2019-01-21T11:26:16.301Z,-1.20
2019-01-21T11:27:16.325Z,-1.23
2019-01-21T11:28:16.291Z,-1.23
2019-01-21T11:29:16.262Z,-1.20
2019-01-21T11:30:16.248Z,-1.20
2019-01-21T11:31:16.241Z,-1.09
2019-01-21T11:32:16.230Z,-1.16
2019-01-21T11:33:16.237Z,-1.19
2019-01-21T11:34:16.218Z,-1.23
2019-01-21T11:35:16.198Z,-1.15
2019-01-21T11:36:16.186Z,-1.10
2019-01-21T11:37:16.181Z,-0.89
2019-01-21T11:38:16.257Z,-0.65
2019-01-21T11:39:16.161Z,-0.58
2019-01-21T11:40:16.146Z,-0.52
2019-01-21T11:41:16.141Z,-0.40
2019-01-21T11:42:16.128Z,-0.42
2019-01-21T11:43:16.142Z,-0.46
2019-01-21T11:44:16.103Z,-0.44
2019-01-21T11:45:18.876Z,-0.51
2019-01-21T11:46:16.089Z,-0.57
2019-01-21T11:47:16.074Z,-0.54
2019-01-21T11:48:16.165Z,-0.58
2019-01-21T11:49:16.055Z,-0.29
2019-01-21T11:50:16.043Z,-0.10
2019-01-21T11:51:16.059Z,-0.11
2019-01-21T11:52:17.646Z,-0.11
2019-01-21T11:53:16.031Z,-0.33
2019-01-21T11:54:15.998Z,0.41
2019-01-21T11:55:15.996Z,0.93
2019-01-21T11:56:15.980Z,0.47
2019-01-21T11:57:15.972Z,0.23
2019-01-21T11:58:15.984Z,-0.03
2019-01-21T11:59:15.948Z,0.62
2019-01-21T12:00:15.941Z,1.40
2019-01-21T12:01:15.931Z,1.73
2019-01-21T12:02:15.927Z,1.88
2019-01-21T12:03:15.929Z,2.12
2019-01-21T12:04:15.895Z,2.17
2019-01-21T12:05:15.887Z,1.76
2019-01-21T12:06:15.880Z,1.62
2019-01-21T12:07:15.863Z,1.65
2019-01-21T12:08:15.858Z,2.03
2019-01-21T12:09:15.865Z,1.99
2019-01-21T12:10:15.834Z,2.42
2019-01-21T12:11:15.819Z,2.72
2019-01-21T12:12:15.814Z,2.93
2019-01-21T12:13:15.809Z,3.15
2019-01-21T12:14:15.818Z,3.03
2019-01-21T12:15:15.787Z,3.06
2019-01-21T12:16:15.771Z,3.68
2019-01-21T12:17:15.766Z,3.69
2019-01-21T12:18:15.751Z,4.00
2019-01-21T12:19:15.766Z,4.05
2019-01-21T12:20:17.168Z,3.61
2019-01-21T12:21:15.722Z,2.93
2019-01-21T12:22:15.705Z,2.89
2019-01-21T12:23:15.699Z,2.81
2019-01-21T12:24:15.705Z,3.10
2019-01-21T12:25:15.675Z,3.08
2019-01-21T12:26:15.666Z,3.31
2019-01-21T12:27:15.648Z,4.00
2019-01-21T12:28:15.637Z,4.08
2019-01-21T12:29:15.650Z,4.02
2019-01-21T12:30:15.623Z,4.26
2019-01-21T12:31:15.610Z,4.32
2019-01-21T12:32:15.606Z,3.91
2019-01-21T12:33:15.592Z,3.02
2019-01-21T12:34:15.600Z,2.24
2019-01-21T12:35:16.312Z,2.07
2019-01-21T12:36:15.560Z,1.90
2019-01-21T12:37:15.552Z,1.91
2019-01-21T12:38:15.549Z,1.66
2019-01-21T12:39:15.558Z,1.87
2019-01-21T12:40:15.514Z,2.27
2019-01-21T12:41:21.436Z,2.63
2019-01-21T12:42:16.545Z,3.15
2019-01-21T12:43:15.484Z,3.61
2019-01-21T12:44:15.505Z,3.91
2019-01-21T12:45:15.464Z,3.90
2019-01-21T12:46:15.453Z,3.90
2019-01-21T12:47:15.445Z,3.66
2019-01-21T12:48:15.427Z,3.33
2019-01-21T12:49:15.433Z,3.03
2019-01-21T12:50:15.428Z,2.59
2019-01-21T12:51:15.398Z,2.39
2019-01-21T12:52:15.390Z,2.41
2019-01-21T12:53:15.385Z,2.31
2019-01-21T12:54:15.365Z,2.30
2019-01-21T12:55:15.382Z,2.38
2019-01-21T12:56:15.350Z,2.60
2019-01-21T12:57:15.338Z,2.71